sensor_id;sensor_type;location;lat;lon;timestamp;P1;durP1;ratioP1;P2;durP2;ratioP2
45522;SDS011;31254;51.680;5.394;2023-12-20T00:01:02;8.30;;;4.45;;
45522;SDS011;31254;51.680;5.394;2023-12-20T00:03:30;7.68;;;4.75;;
45522;SDS011;31254;51.680;5.394;2023-12-20T00:06:07;6.75;;;4.28;;
45522;SDS011;31254;51.680;5.394;2023-12-20T00:08:34;7.15;;;4.30;;
45522;SDS011;31254;51.680;5.394;2023-12-20T00:11:01;7.45;;;4.57;;
45522;SDS011;31254;51.680;5.394;2023-12-20T00:13:27;12.68;;;4.60;;
45522;SDS011;31254;51.680;5.394;2023-12-20T00:15:54;9.07;;;3.85;;
45522;SDS011;31254;51.680;5.394;2023-12-20T00:18:20;10.00;;;4.07;;
45522;SDS011;31254;51.680;5.394;2023-12-20T00:20:47;7.53;;;4.18;;
45522;SDS011;31254;51.680;5.394;2023-12-20T00:23:14;8.77;;;4.28;;
45522;SDS011;31254;51.680;5.394;2023-12-20T00:25:40;5.18;;;3.53;;
45522;SDS011;31254;51.680;5.394;2023-12-20T00:28:07;6.90;;;4.15;;
45522;SDS011;31254;51.680;5.394;2023-12-20T00:30:34;8.13;;;3.72;;
45522;SDS011;31254;51.680;5.394;2023-12-20T00:33:00;5.82;;;3.70;;
45522;SDS011;31254;51.680;5.394;2023-12-20T00:35:27;6.32;;;3.70;;
45522;SDS011;31254;51.680;5.394;2023-12-20T00:37:54;8.13;;;3.83;;
45522;SDS011;31254;51.680;5.394;2023-12-20T00:40:20;7.53;;;3.92;;
45522;SDS011;31254;51.680;5.394;2023-12-20T00:42:48;6.75;;;3.65;;
45522;SDS011;31254;51.680;5.394;2023-12-20T00:45:15;5.70;;;3.30;;
45522;SDS011;31254;51.680;5.394;2023-12-20T00:47:41;8.15;;;3.85;;
45522;SDS011;31254;51.680;5.394;2023-12-20T00:50:08;7.60;;;3.67;;
45522;SDS011;31254;51.680;5.394;2023-12-20T00:52:35;6.65;;;3.53;;
45522;SDS011;31254;51.680;5.394;2023-12-20T00:55:02;8.40;;;3.63;;
45522;SDS011;31254;51.680;5.394;2023-12-20T00:57:30;6.60;;;3.15;;
45522;SDS011;31254;51.680;5.394;2023-12-20T00:59:57;8.45;;;3.50;;
45522;SDS011;31254;51.680;5.394;2023-12-20T01:02:24;8.02;;;3.65;;
45522;SDS011;31254;51.680;5.394;2023-12-20T01:04:51;7.60;;;3.28;;
45522;SDS011;31254;51.680;5.394;2023-12-20T01:07:17;7.05;;;3.42;;
45522;SDS011;31254;51.680;5.394;2023-12-20T01:09:44;7.47;;;3.05;;
45522;SDS011;31254;51.680;5.394;2023-12-20T01:12:10;8.68;;;3.15;;
45522;SDS011;31254;51.680;5.394;2023-12-20T01:14:37;5.55;;;2.78;;
45522;SDS011;31254;51.680;5.394;2023-12-20T01:17:05;6.30;;;3.10;;
45522;SDS011;31254;51.680;5.394;2023-12-20T01:19:32;9.73;;;3.25;;
45522;SDS011;31254;51.680;5.394;2023-12-20T01:21:59;5.53;;;2.47;;
45522;SDS011;31254;51.680;5.394;2023-12-20T01:24:26;9.73;;;3.17;;
45522;SDS011;31254;51.680;5.394;2023-12-20T01:26:52;7.93;;;2.53;;
45522;SDS011;31254;51.680;5.394;2023-12-20T01:29:19;5.20;;;2.75;;
45522;SDS011;31254;51.680;5.394;2023-12-20T01:31:45;6.80;;;3.25;;
45522;SDS011;31254;51.680;5.394;2023-12-20T01:34:12;8.20;;;2.67;;
45522;SDS011;31254;51.680;5.394;2023-12-20T01:36:39;6.57;;;2.80;;
45522;SDS011;31254;51.680;5.394;2023-12-20T01:39:05;6.07;;;2.50;;
45522;SDS011;31254;51.680;5.394;2023-12-20T01:41:50;5.82;;;2.60;;
45522;SDS011;31254;51.680;5.394;2023-12-20T01:44:16;5.43;;;2.35;;
45522;SDS011;31254;51.680;5.394;2023-12-20T01:46:43;5.63;;;2.63;;
45522;SDS011;31254;51.680;5.394;2023-12-20T01:49:10;5.65;;;2.42;;
45522;SDS011;31254;51.680;5.394;2023-12-20T01:51:37;5.20;;;2.47;;
45522;SDS011;31254;51.680;5.394;2023-12-20T01:54:04;6.30;;;2.40;;
45522;SDS011;31254;51.680;5.394;2023-12-20T01:56:31;7.53;;;2.83;;
45522;SDS011;31254;51.680;5.394;2023-12-20T01:58:58;5.70;;;2.22;;
45522;SDS011;31254;51.680;5.394;2023-12-20T02:01:25;6.47;;;2.42;;
45522;SDS011;31254;51.680;5.394;2023-12-20T02:03:52;4.75;;;2.33;;
45522;SDS011;31254;51.680;5.394;2023-12-20T02:06:18;6.05;;;2.05;;
45522;SDS011;31254;51.680;5.394;2023-12-20T02:08:49;5.95;;;2.03;;
45522;SDS011;31254;51.680;5.394;2023-12-20T02:11:16;6.38;;;2.20;;
45522;SDS011;31254;51.680;5.394;2023-12-20T02:13:42;8.13;;;2.28;;
45522;SDS011;31254;51.680;5.394;2023-12-20T02:16:09;5.88;;;2.10;;
45522;SDS011;31254;51.680;5.394;2023-12-20T02:18:36;6.10;;;2.28;;
45522;SDS011;31254;51.680;5.394;2023-12-20T02:21:04;9.82;;;2.08;;
45522;SDS011;31254;51.680;5.394;2023-12-20T02:23:31;5.78;;;1.88;;
45522;SDS011;31254;51.680;5.394;2023-12-20T02:25:58;4.40;;;1.90;;
45522;SDS011;31254;51.680;5.394;2023-12-20T02:28:24;7.88;;;2.10;;
45522;SDS011;31254;51.680;5.394;2023-12-20T02:30:51;6.35;;;2.78;;
45522;SDS011;31254;51.680;5.394;2023-12-20T02:33:18;6.47;;;2.05;;
45522;SDS011;31254;51.680;5.394;2023-12-20T02:35:45;6.60;;;2.00;;
45522;SDS011;31254;51.680;5.394;2023-12-20T02:38:11;6.18;;;1.70;;
45522;SDS011;31254;51.680;5.394;2023-12-20T02:40:38;8.05;;;2.33;;
45522;SDS011;31254;51.680;5.394;2023-12-20T02:43:04;8.38;;;2.15;;
45522;SDS011;31254;51.680;5.394;2023-12-20T02:45:31;6.05;;;2.20;;
45522;SDS011;31254;51.680;5.394;2023-12-20T02:47:57;6.57;;;2.22;;
45522;SDS011;31254;51.680;5.394;2023-12-20T02:50:24;5.75;;;1.90;;
45522;SDS011;31254;51.680;5.394;2023-12-20T02:52:50;7.28;;;1.90;;
45522;SDS011;31254;51.680;5.394;2023-12-20T02:55:17;4.68;;;1.80;;
45522;SDS011;31254;51.680;5.394;2023-12-20T02:57:43;7.95;;;2.10;;
45522;SDS011;31254;51.680;5.394;2023-12-20T03:00:10;4.95;;;1.92;;
45522;SDS011;31254;51.680;5.394;2023-12-20T03:02:37;4.82;;;1.75;;
45522;SDS011;31254;51.680;5.394;2023-12-20T03:05:04;8.18;;;2.25;;
45522;SDS011;31254;51.680;5.394;2023-12-20T03:07:31;6.45;;;2.08;;
45522;SDS011;31254;51.680;5.394;2023-12-20T03:09:57;7.30;;;2.13;;
45522;SDS011;31254;51.680;5.394;2023-12-20T03:12:44;6.28;;;2.17;;
45522;SDS011;31254;51.680;5.394;2023-12-20T03:15:10;5.28;;;2.00;;
45522;SDS011;31254;51.680;5.394;2023-12-20T03:17:37;6.45;;;2.05;;
45522;SDS011;31254;51.680;5.394;2023-12-20T03:20:04;5.07;;;2.00;;
45522;SDS011;31254;51.680;5.394;2023-12-20T03:22:31;11.15;;;2.42;;
45522;SDS011;31254;51.680;5.394;2023-12-20T03:24:57;7.13;;;2.60;;
45522;SDS011;31254;51.680;5.394;2023-12-20T03:27:24;5.45;;;1.90;;
45522;SDS011;31254;51.680;5.394;2023-12-20T03:29:50;5.03;;;1.60;;
45522;SDS011;31254;51.680;5.394;2023-12-20T03:32:17;6.57;;;2.08;;
45522;SDS011;31254;51.680;5.394;2023-12-20T03:34:43;8.52;;;2.53;;
45522;SDS011;31254;51.680;5.394;2023-12-20T03:37:10;7.65;;;1.88;;
45522;SDS011;31254;51.680;5.394;2023-12-20T03:39:37;5.60;;;1.60;;
45522;SDS011;31254;51.680;5.394;2023-12-20T03:42:03;7.45;;;1.95;;
45522;SDS011;31254;51.680;5.394;2023-12-20T03:44:30;5.60;;;1.92;;
45522;SDS011;31254;51.680;5.394;2023-12-20T03:46:56;5.68;;;1.95;;
45522;SDS011;31254;51.680;5.394;2023-12-20T03:49:23;3.90;;;1.67;;
45522;SDS011;31254;51.680;5.394;2023-12-20T03:51:49;5.18;;;2.08;;
45522;SDS011;31254;51.680;5.394;2023-12-20T03:54:16;6.15;;;1.90;;
45522;SDS011;31254;51.680;5.394;2023-12-20T03:56:43;6.90;;;1.80;;
45522;SDS011;31254;51.680;5.394;2023-12-20T03:59:09;10.13;;;2.28;;
45522;SDS011;31254;51.680;5.394;2023-12-20T04:01:36;4.80;;;1.77;;
45522;SDS011;31254;51.680;5.394;2023-12-20T04:04:02;6.03;;;1.60;;
45522;SDS011;31254;51.680;5.394;2023-12-20T04:06:29;8.48;;;3.35;;
45522;SDS011;31254;51.680;5.394;2023-12-20T04:08:56;6.57;;;1.98;;
45522;SDS011;31254;51.680;5.394;2023-12-20T04:11:22;6.63;;;2.08;;
45522;SDS011;31254;51.680;5.394;2023-12-20T04:13:49;8.65;;;2.67;;
45522;SDS011;31254;51.680;5.394;2023-12-20T04:16:15;7.68;;;1.90;;
45522;SDS011;31254;51.680;5.394;2023-12-20T04:18:42;9.85;;;2.13;;
45522;SDS011;31254;51.680;5.394;2023-12-20T04:21:09;10.25;;;1.90;;
45522;SDS011;31254;51.680;5.394;2023-12-20T04:23:35;9.18;;;1.92;;
45522;SDS011;31254;51.680;5.394;2023-12-20T04:26:02;8.38;;;2.30;;
45522;SDS011;31254;51.680;5.394;2023-12-20T04:28:29;7.25;;;2.45;;
45522;SDS011;31254;51.680;5.394;2023-12-20T04:30:58;7.82;;;1.90;;
45522;SDS011;31254;51.680;5.394;2023-12-20T04:33:25;5.05;;;1.63;;
45522;SDS011;31254;51.680;5.394;2023-12-20T04:35:51;5.93;;;1.75;;
45522;SDS011;31254;51.680;5.394;2023-12-20T04:38:18;8.57;;;2.05;;
45522;SDS011;31254;51.680;5.394;2023-12-20T04:40:45;5.80;;;1.75;;
45522;SDS011;31254;51.680;5.394;2023-12-20T04:43:11;6.43;;;1.80;;
45522;SDS011;31254;51.680;5.394;2023-12-20T04:45:38;9.38;;;2.10;;
45522;SDS011;31254;51.680;5.394;2023-12-20T04:48:05;10.18;;;1.77;;
45522;SDS011;31254;51.680;5.394;2023-12-20T04:50:32;9.10;;;2.80;;
45522;SDS011;31254;51.680;5.394;2023-12-20T04:52:59;7.50;;;2.03;;
45522;SDS011;31254;51.680;5.394;2023-12-20T04:55:27;6.28;;;1.90;;
45522;SDS011;31254;51.680;5.394;2023-12-20T04:57:53;7.43;;;2.00;;
45522;SDS011;31254;51.680;5.394;2023-12-20T05:00:21;6.53;;;1.80;;
45522;SDS011;31254;51.680;5.394;2023-12-20T05:02:47;6.57;;;2.00;;
45522;SDS011;31254;51.680;5.394;2023-12-20T05:05:14;7.95;;;2.13;;
45522;SDS011;31254;51.680;5.394;2023-12-20T05:07:41;6.30;;;2.10;;
45522;SDS011;31254;51.680;5.394;2023-12-20T05:10:08;6.72;;;1.65;;
45522;SDS011;31254;51.680;5.394;2023-12-20T05:12:35;8.05;;;2.08;;
45522;SDS011;31254;51.680;5.394;2023-12-20T05:15:02;11.90;;;2.05;;
45522;SDS011;31254;51.680;5.394;2023-12-20T05:17:29;6.53;;;1.80;;
45522;SDS011;31254;51.680;5.394;2023-12-20T05:19:55;8.43;;;1.77;;
45522;SDS011;31254;51.680;5.394;2023-12-20T05:22:22;11.10;;;2.60;;
45522;SDS011;31254;51.680;5.394;2023-12-20T05:24:48;11.50;;;2.42;;
45522;SDS011;31254;51.680;5.394;2023-12-20T05:27:15;8.63;;;1.92;;
45522;SDS011;31254;51.680;5.394;2023-12-20T05:29:42;6.50;;;1.90;;
45522;SDS011;31254;51.680;5.394;2023-12-20T05:32:09;14.00;;;2.05;;
45522;SDS011;31254;51.680;5.394;2023-12-20T05:34:36;8.23;;;2.15;;
45522;SDS011;31254;51.680;5.394;2023-12-20T05:37:03;8.23;;;2.15;;
45522;SDS011;31254;51.680;5.394;2023-12-20T05:39:30;9.18;;;2.17;;
45522;SDS011;31254;51.680;5.394;2023-12-20T05:41:57;10.00;;;2.15;;
45522;SDS011;31254;51.680;5.394;2023-12-20T05:44:24;6.30;;;1.65;;
45522;SDS011;31254;51.680;5.394;2023-12-20T05:46:50;9.07;;;2.28;;
45522;SDS011;31254;51.680;5.394;2023-12-20T05:49:17;6.30;;;1.63;;
45522;SDS011;31254;51.680;5.394;2023-12-20T05:51:43;6.38;;;1.90;;
45522;SDS011;31254;51.680;5.394;2023-12-20T05:54:10;5.18;;;1.65;;
45522;SDS011;31254;51.680;5.394;2023-12-20T05:56:36;7.20;;;1.77;;
45522;SDS011;31254;51.680;5.394;2023-12-20T05:59:03;6.80;;;2.25;;
45522;SDS011;31254;51.680;5.394;2023-12-20T06:01:29;5.30;;;1.55;;
45522;SDS011;31254;51.680;5.394;2023-12-20T06:03:56;5.80;;;1.70;;
45522;SDS011;31254;51.680;5.394;2023-12-20T06:06:23;5.90;;;1.70;;
45522;SDS011;31254;51.680;5.394;2023-12-20T06:08:50;11.60;;;1.92;;
45522;SDS011;31254;51.680;5.394;2023-12-20T06:11:16;7.95;;;1.60;;
45522;SDS011;31254;51.680;5.394;2023-12-20T06:13:43;8.73;;;1.83;;
45522;SDS011;31254;51.680;5.394;2023-12-20T06:16:10;13.00;;;2.22;;
45522;SDS011;31254;51.680;5.394;2023-12-20T06:18:36;8.55;;;2.00;;
45522;SDS011;31254;51.680;5.394;2023-12-20T06:21:04;10.68;;;1.92;;
45522;SDS011;31254;51.680;5.394;2023-12-20T06:23:31;11.25;;;2.20;;
45522;SDS011;31254;51.680;5.394;2023-12-20T06:25:57;10.95;;;2.47;;
45522;SDS011;31254;51.680;5.394;2023-12-20T06:28:24;7.60;;;2.03;;
45522;SDS011;31254;51.680;5.394;2023-12-20T06:30:50;8.55;;;1.73;;
45522;SDS011;31254;51.680;5.394;2023-12-20T06:33:19;7.60;;;1.98;;
45522;SDS011;31254;51.680;5.394;2023-12-20T06:35:48;14.05;;;2.70;;
45522;SDS011;31254;51.680;5.394;2023-12-20T06:38:15;10.25;;;2.50;;
45522;SDS011;31254;51.680;5.394;2023-12-20T06:40:41;12.40;;;2.22;;
45522;SDS011;31254;51.680;5.394;2023-12-20T06:43:09;10.80;;;2.15;;
45522;SDS011;31254;51.680;5.394;2023-12-20T06:45:51;11.35;;;2.40;;
45522;SDS011;31254;51.680;5.394;2023-12-20T06:48:18;10.73;;;2.20;;
45522;SDS011;31254;51.680;5.394;2023-12-20T06:50:46;11.15;;;2.20;;
45522;SDS011;31254;51.680;5.394;2023-12-20T06:53:12;11.00;;;2.50;;
45522;SDS011;31254;51.680;5.394;2023-12-20T06:55:39;13.95;;;2.53;;
45522;SDS011;31254;51.680;5.394;2023-12-20T06:58:06;9.57;;;2.10;;
45522;SDS011;31254;51.680;5.394;2023-12-20T07:00:33;7.22;;;2.03;;
45522;SDS011;31254;51.680;5.394;2023-12-20T07:03:00;11.63;;;2.63;;
45522;SDS011;31254;51.680;5.394;2023-12-20T07:05:27;10.38;;;2.20;;
45522;SDS011;31254;51.680;5.394;2023-12-20T07:07:53;13.93;;;2.13;;
45522;SDS011;31254;51.680;5.394;2023-12-20T07:10:20;11.68;;;2.53;;
45522;SDS011;31254;51.680;5.394;2023-12-20T07:12:47;12.02;;;2.15;;
45522;SDS011;31254;51.680;5.394;2023-12-20T07:15:15;11.32;;;2.28;;
45522;SDS011;31254;51.680;5.394;2023-12-20T07:17:42;8.48;;;2.28;;
45522;SDS011;31254;51.680;5.394;2023-12-20T07:20:10;9.57;;;1.80;;
45522;SDS011;31254;51.680;5.394;2023-12-20T07:22:37;7.88;;;1.95;;
45522;SDS011;31254;51.680;5.394;2023-12-20T07:25:04;13.25;;;2.67;;
45522;SDS011;31254;51.680;5.394;2023-12-20T07:27:31;11.40;;;1.90;;
45522;SDS011;31254;51.680;5.394;2023-12-20T07:29:58;7.57;;;1.85;;
45522;SDS011;31254;51.680;5.394;2023-12-20T07:32:24;8.45;;;2.45;;
45522;SDS011;31254;51.680;5.394;2023-12-20T07:34:51;6.65;;;2.08;;
45522;SDS011;31254;51.680;5.394;2023-12-20T07:37:18;14.25;;;2.10;;
45522;SDS011;31254;51.680;5.394;2023-12-20T07:39:46;10.77;;;2.13;;
45522;SDS011;31254;51.680;5.394;2023-12-20T07:42:12;8.00;;;2.05;;
45522;SDS011;31254;51.680;5.394;2023-12-20T07:44:39;9.40;;;2.33;;
45522;SDS011;31254;51.680;5.394;2023-12-20T07:47:06;11.68;;;2.28;;
45522;SDS011;31254;51.680;5.394;2023-12-20T07:49:32;9.10;;;2.10;;
45522;SDS011;31254;51.680;5.394;2023-12-20T07:51:59;8.35;;;1.92;;
45522;SDS011;31254;51.680;5.394;2023-12-20T07:54:26;9.05;;;2.08;;
45522;SDS011;31254;51.680;5.394;2023-12-20T07:56:52;7.82;;;1.92;;
45522;SDS011;31254;51.680;5.394;2023-12-20T07:59:19;9.95;;;2.30;;
45522;SDS011;31254;51.680;5.394;2023-12-20T08:01:57;9.60;;;2.25;;
45522;SDS011;31254;51.680;5.394;2023-12-20T08:04:27;8.13;;;1.88;;
45522;SDS011;31254;51.680;5.394;2023-12-20T08:06:54;10.15;;;2.22;;
45522;SDS011;31254;51.680;5.394;2023-12-20T08:09:21;9.88;;;2.30;;
45522;SDS011;31254;51.680;5.394;2023-12-20T08:11:48;8.98;;;2.25;;
45522;SDS011;31254;51.680;5.394;2023-12-20T08:14:15;9.38;;;1.98;;
45522;SDS011;31254;51.680;5.394;2023-12-20T08:16:45;8.73;;;2.45;;
45522;SDS011;31254;51.680;5.394;2023-12-20T08:19:11;8.75;;;2.03;;
45522;SDS011;31254;51.680;5.394;2023-12-20T08:21:38;11.57;;;2.05;;
45522;SDS011;31254;51.680;5.394;2023-12-20T08:24:05;15.48;;;1.90;;
45522;SDS011;31254;51.680;5.394;2023-12-20T08:26:32;9.82;;;2.28;;
45522;SDS011;31254;51.680;5.394;2023-12-20T08:28:59;5.50;;;1.98;;
45522;SDS011;31254;51.680;5.394;2023-12-20T08:31:27;8.07;;;1.63;;
45522;SDS011;31254;51.680;5.394;2023-12-20T08:33:55;12.07;;;1.90;;
45522;SDS011;31254;51.680;5.394;2023-12-20T08:36:22;9.73;;;2.08;;
45522;SDS011;31254;51.680;5.394;2023-12-20T08:38:50;8.65;;;1.90;;
45522;SDS011;31254;51.680;5.394;2023-12-20T08:41:17;11.98;;;2.08;;
45522;SDS011;31254;51.680;5.394;2023-12-20T08:43:44;11.30;;;1.88;;
45522;SDS011;31254;51.680;5.394;2023-12-20T08:46:11;7.95;;;1.88;;
45522;SDS011;31254;51.680;5.394;2023-12-20T08:48:38;8.27;;;1.85;;
45522;SDS011;31254;51.680;5.394;2023-12-20T08:51:05;10.15;;;2.13;;
45522;SDS011;31254;51.680;5.394;2023-12-20T08:53:36;8.05;;;1.55;;
45522;SDS011;31254;51.680;5.394;2023-12-20T08:56:02;8.65;;;2.22;;
45522;SDS011;31254;51.680;5.394;2023-12-20T08:58:29;14.68;;;2.08;;
45522;SDS011;31254;51.680;5.394;2023-12-20T09:00:56;7.53;;;1.80;;
45522;SDS011;31254;51.680;5.394;2023-12-20T09:03:24;11.55;;;2.67;;
45522;SDS011;31254;51.680;5.394;2023-12-20T09:05:50;7.95;;;2.17;;
45522;SDS011;31254;51.680;5.394;2023-12-20T09:08:17;11.15;;;2.22;;
45522;SDS011;31254;51.680;5.394;2023-12-20T09:10:44;10.75;;;2.10;;
45522;SDS011;31254;51.680;5.394;2023-12-20T09:13:11;11.15;;;1.83;;
45522;SDS011;31254;51.680;5.394;2023-12-20T09:15:38;5.20;;;1.50;;
45522;SDS011;31254;51.680;5.394;2023-12-20T09:18:05;7.82;;;1.77;;
45522;SDS011;31254;51.680;5.394;2023-12-20T09:20:32;7.38;;;2.17;;
45522;SDS011;31254;51.680;5.394;2023-12-20T09:23:00;6.82;;;2.10;;
45522;SDS011;31254;51.680;5.394;2023-12-20T09:25:26;9.00;;;1.83;;
45522;SDS011;31254;51.680;5.394;2023-12-20T09:27:53;10.63;;;2.13;;
45522;SDS011;31254;51.680;5.394;2023-12-20T09:30:20;10.48;;;1.85;;
45522;SDS011;31254;51.680;5.394;2023-12-20T09:32:53;7.43;;;2.25;;
45522;SDS011;31254;51.680;5.394;2023-12-20T09:35:23;9.77;;;2.00;;
45522;SDS011;31254;51.680;5.394;2023-12-20T09:37:50;8.30;;;1.42;;
45522;SDS011;31254;51.680;5.394;2023-12-20T09:40:19;5.88;;;2.20;;
45522;SDS011;31254;51.680;5.394;2023-12-20T09:42:56;10.20;;;2.05;;
45522;SDS011;31254;51.680;5.394;2023-12-20T09:45:24;9.57;;;2.33;;
45522;SDS011;31254;51.680;5.394;2023-12-20T09:47:54;10.98;;;1.85;;
45522;SDS011;31254;51.680;5.394;2023-12-20T09:50:21;9.85;;;1.90;;
45522;SDS011;31254;51.680;5.394;2023-12-20T09:52:52;8.75;;;2.08;;
45522;SDS011;31254;51.680;5.394;2023-12-20T09:55:20;9.40;;;2.08;;
45522;SDS011;31254;51.680;5.394;2023-12-20T09:57:48;9.90;;;2.10;;
45522;SDS011;31254;51.680;5.394;2023-12-20T10:00:16;5.57;;;1.88;;
45522;SDS011;31254;51.680;5.394;2023-12-20T10:02:50;12.48;;;1.70;;
45522;SDS011;31254;51.680;5.394;2023-12-20T10:05:27;10.13;;;2.10;;
45522;SDS011;31254;51.680;5.394;2023-12-20T10:07:55;7.60;;;2.00;;
45522;SDS011;31254;51.680;5.394;2023-12-20T10:10:22;10.35;;;2.20;;
45522;SDS011;31254;51.680;5.394;2023-12-20T10:15:37;10.65;;;2.25;;
45522;SDS011;31254;51.680;5.394;2023-12-20T10:18:04;10.27;;;2.50;;
45522;SDS011;31254;51.680;5.394;2023-12-20T10:20:31;11.27;;;2.20;;
45522;SDS011;31254;51.680;5.394;2023-12-20T10:22:58;11.68;;;2.17;;
45522;SDS011;31254;51.680;5.394;2023-12-20T10:25:26;13.93;;;2.22;;
45522;SDS011;31254;51.680;5.394;2023-12-20T10:30:40;9.07;;;2.03;;
45522;SDS011;31254;51.680;5.394;2023-12-20T10:33:08;8.82;;;2.28;;
45522;SDS011;31254;51.680;5.394;2023-12-20T10:35:37;10.60;;;2.35;;
45522;SDS011;31254;51.680;5.394;2023-12-20T10:38:09;12.05;;;2.30;;
45522;SDS011;31254;51.680;5.394;2023-12-20T10:40:37;7.38;;;2.10;;
45522;SDS011;31254;51.680;5.394;2023-12-20T10:43:05;9.40;;;2.40;;
45522;SDS011;31254;51.680;5.394;2023-12-20T10:45:32;7.32;;;1.63;;
45522;SDS011;31254;51.680;5.394;2023-12-20T10:47:59;11.50;;;2.30;;
45522;SDS011;31254;51.680;5.394;2023-12-20T10:50:28;16.00;;;2.40;;
45522;SDS011;31254;51.680;5.394;2023-12-20T10:52:56;8.85;;;1.92;;
45522;SDS011;31254;51.680;5.394;2023-12-20T10:55:24;15.00;;;2.35;;
45522;SDS011;31254;51.680;5.394;2023-12-20T10:57:52;12.60;;;2.35;;
45522;SDS011;31254;51.680;5.394;2023-12-20T11:00:25;9.75;;;2.25;;
45522;SDS011;31254;51.680;5.394;2023-12-20T11:02:52;11.65;;;2.17;;
45522;SDS011;31254;51.680;5.394;2023-12-20T11:05:25;11.15;;;1.58;;
45522;SDS011;31254;51.680;5.394;2023-12-20T11:08:20;9.85;;;2.10;;
45522;SDS011;31254;51.680;5.394;2023-12-20T11:10:56;10.80;;;2.53;;
45522;SDS011;31254;51.680;5.394;2023-12-20T11:13:32;13.15;;;2.72;;
45522;SDS011;31254;51.680;5.394;2023-12-20T11:16:06;14.35;;;2.67;;
45522;SDS011;31254;51.680;5.394;2023-12-20T11:18:34;12.10;;;1.92;;
45522;SDS011;31254;51.680;5.394;2023-12-20T11:21:01;12.73;;;2.08;;
45522;SDS011;31254;51.680;5.394;2023-12-20T11:23:30;11.80;;;1.98;;
45522;SDS011;31254;51.680;5.394;2023-12-20T11:26:01;7.75;;;1.75;;
45522;SDS011;31254;51.680;5.394;2023-12-20T11:28:28;11.15;;;1.98;;
45522;SDS011;31254;51.680;5.394;2023-12-20T11:30:58;8.68;;;2.20;;
45522;SDS011;31254;51.680;5.394;2023-12-20T11:33:29;10.82;;;2.25;;
45522;SDS011;31254;51.680;5.394;2023-12-20T11:35:58;9.43;;;2.20;;
45522;SDS011;31254;51.680;5.394;2023-12-20T11:38:26;10.50;;;2.15;;
45522;SDS011;31254;51.680;5.394;2023-12-20T11:40:56;10.07;;;2.60;;
45522;SDS011;31254;51.680;5.394;2023-12-20T11:43:32;10.30;;;2.15;;
45522;SDS011;31254;51.680;5.394;2023-12-20T11:46:02;6.78;;;1.98;;
45522;SDS011;31254;51.680;5.394;2023-12-20T11:48:35;11.15;;;2.53;;
45522;SDS011;31254;51.680;5.394;2023-12-20T11:51:08;16.65;;;2.30;;
45522;SDS011;31254;51.680;5.394;2023-12-20T11:53:38;9.15;;;1.95;;
45522;SDS011;31254;51.680;5.394;2023-12-20T11:56:05;13.32;;;2.05;;
45522;SDS011;31254;51.680;5.394;2023-12-20T11:58:36;15.02;;;2.85;;
45522;SDS011;31254;51.680;5.394;2023-12-20T12:01:03;10.43;;;2.10;;
45522;SDS011;31254;51.680;5.394;2023-12-20T12:03:31;13.70;;;2.33;;
45522;SDS011;31254;51.680;5.394;2023-12-20T12:05:57;10.68;;;1.98;;
45522;SDS011;31254;51.680;5.394;2023-12-20T12:08:24;11.95;;;1.70;;
45522;SDS011;31254;51.680;5.394;2023-12-20T12:10:51;15.65;;;2.30;;
45522;SDS011;31254;51.680;5.394;2023-12-20T12:13:18;8.07;;;1.95;;
45522;SDS011;31254;51.680;5.394;2023-12-20T12:15:44;10.82;;;2.08;;
45522;SDS011;31254;51.680;5.394;2023-12-20T12:18:14;7.25;;;2.05;;
45522;SDS011;31254;51.680;5.394;2023-12-20T12:20:42;12.90;;;2.25;;
45522;SDS011;31254;51.680;5.394;2023-12-20T12:23:09;12.25;;;2.10;;
45522;SDS011;31254;51.680;5.394;2023-12-20T12:25:35;8.93;;;2.03;;
45522;SDS011;31254;51.680;5.394;2023-12-20T12:28:08;8.55;;;1.88;;
45522;SDS011;31254;51.680;5.394;2023-12-20T12:30:35;14.20;;;2.20;;
45522;SDS011;31254;51.680;5.394;2023-12-20T12:33:11;8.88;;;2.03;;
45522;SDS011;31254;51.680;5.394;2023-12-20T12:35:39;10.85;;;2.30;;
45522;SDS011;31254;51.680;5.394;2023-12-20T12:38:07;12.95;;;2.47;;
45522;SDS011;31254;51.680;5.394;2023-12-20T12:40:35;9.07;;;2.10;;
45522;SDS011;31254;51.680;5.394;2023-12-20T12:43:02;13.32;;;2.08;;
45522;SDS011;31254;51.680;5.394;2023-12-20T12:45:29;11.07;;;2.42;;
45522;SDS011;31254;51.680;5.394;2023-12-20T12:47:56;13.00;;;2.00;;
45522;SDS011;31254;51.680;5.394;2023-12-20T12:50:23;21.25;;;2.92;;
45522;SDS011;31254;51.680;5.394;2023-12-20T12:52:50;15.45;;;2.60;;
45522;SDS011;31254;51.680;5.394;2023-12-20T12:55:16;22.90;;;2.95;;
45522;SDS011;31254;51.680;5.394;2023-12-20T12:57:43;18.27;;;3.45;;
45522;SDS011;31254;51.680;5.394;2023-12-20T13:00:10;26.13;;;3.50;;
45522;SDS011;31254;51.680;5.394;2023-12-20T13:02:37;21.80;;;3.30;;
45522;SDS011;31254;51.680;5.394;2023-12-20T13:05:08;21.95;;;3.60;;
45522;SDS011;31254;51.680;5.394;2023-12-20T13:07:35;18.98;;;3.40;;
45522;SDS011;31254;51.680;5.394;2023-12-20T13:10:02;20.45;;;2.88;;
45522;SDS011;31254;51.680;5.394;2023-12-20T13:12:30;22.33;;;2.97;;
45522;SDS011;31254;51.680;5.394;2023-12-20T13:14:56;18.50;;;3.13;;
45522;SDS011;31254;51.680;5.394;2023-12-20T13:17:23;15.70;;;2.85;;
45522;SDS011;31254;51.680;5.394;2023-12-20T13:19:50;17.92;;;2.95;;
45522;SDS011;31254;51.680;5.394;2023-12-20T13:22:16;16.77;;;3.03;;
45522;SDS011;31254;51.680;5.394;2023-12-20T13:24:43;14.38;;;2.45;;
45522;SDS011;31254;51.680;5.394;2023-12-20T13:27:10;12.55;;;2.72;;
45522;SDS011;31254;51.680;5.394;2023-12-20T13:29:37;15.43;;;2.38;;
45522;SDS011;31254;51.680;5.394;2023-12-20T13:32:06;11.02;;;2.38;;
45522;SDS011;31254;51.680;5.394;2023-12-20T13:34:33;16.23;;;2.88;;
45522;SDS011;31254;51.680;5.394;2023-12-20T13:36:59;14.65;;;2.45;;
45522;SDS011;31254;51.680;5.394;2023-12-20T13:39:26;13.45;;;2.92;;
45522;SDS011;31254;51.680;5.394;2023-12-20T13:41:53;12.10;;;1.88;;
45522;SDS011;31254;51.680;5.394;2023-12-20T13:44:21;11.00;;;2.28;;
45522;SDS011;31254;51.680;5.394;2023-12-20T13:46:48;16.63;;;2.67;;
45522;SDS011;31254;51.680;5.394;2023-12-20T13:49:16;15.32;;;2.20;;
45522;SDS011;31254;51.680;5.394;2023-12-20T13:51:42;10.70;;;2.35;;
45522;SDS011;31254;51.680;5.394;2023-12-20T13:54:09;15.57;;;2.63;;
45522;SDS011;31254;51.680;5.394;2023-12-20T13:56:37;10.45;;;1.95;;
45522;SDS011;31254;51.680;5.394;2023-12-20T13:59:17;11.48;;;2.25;;
45522;SDS011;31254;51.680;5.394;2023-12-20T14:01:44;9.65;;;2.17;;
45522;SDS011;31254;51.680;5.394;2023-12-20T14:04:10;11.73;;;2.53;;
45522;SDS011;31254;51.680;5.394;2023-12-20T14:06:57;9.52;;;2.15;;
45522;SDS011;31254;51.680;5.394;2023-12-20T14:09:24;14.93;;;2.65;;
45522;SDS011;31254;51.680;5.394;2023-12-20T14:11:51;10.32;;;2.60;;
45522;SDS011;31254;51.680;5.394;2023-12-20T14:14:18;12.35;;;2.28;;
45522;SDS011;31254;51.680;5.394;2023-12-20T14:16:45;11.55;;;2.50;;
45522;SDS011;31254;51.680;5.394;2023-12-20T14:19:11;11.48;;;2.20;;
45522;SDS011;31254;51.680;5.394;2023-12-20T14:21:38;7.88;;;2.30;;
45522;SDS011;31254;51.680;5.394;2023-12-20T14:24:05;10.93;;;2.03;;
45522;SDS011;31254;51.680;5.394;2023-12-20T14:26:32;9.40;;;1.83;;
45522;SDS011;31254;51.680;5.394;2023-12-20T14:28:58;11.23;;;2.28;;
45522;SDS011;31254;51.680;5.394;2023-12-20T14:31:25;8.38;;;1.85;;
45522;SDS011;31254;51.680;5.394;2023-12-20T14:33:51;5.97;;;1.50;;
45522;SDS011;31254;51.680;5.394;2023-12-20T14:36:21;11.07;;;2.35;;
45522;SDS011;31254;51.680;5.394;2023-12-20T14:38:47;10.00;;;2.10;;
45522;SDS011;31254;51.680;5.394;2023-12-20T14:41:16;10.90;;;1.73;;
45522;SDS011;31254;51.680;5.394;2023-12-20T14:43:45;13.70;;;2.20;;
45522;SDS011;31254;51.680;5.394;2023-12-20T14:46:13;13.27;;;2.38;;
45522;SDS011;31254;51.680;5.394;2023-12-20T14:48:39;9.45;;;2.13;;
45522;SDS011;31254;51.680;5.394;2023-12-20T14:51:06;8.27;;;2.30;;